Time;durP1;ratioP1;P1;durP2;ratioP2;P2;SDS_P1;SDS_P2;PMS_P1;PMS_P2;Temp;Humidity;BMP_temperature;BMP_pressure;BME280_temperature;BME280_humidity;BME280_pressure;Samples;Min_cycle;Max_cycle;Signal;HPM_P1;HPM_P2
2023/04/14 00:00:21;;;;;;;5.33;2.60;;;9.20;99.90;;;;;;5009259;28;20287;-33
2023/04/14 00:02:51;;;;;;;6.90;3.13;;;9.20;99.90;;;;;;5006116;28;20304;-33
2023/04/14 00:05:18;;;;;;;6.40;2.97;;;9.20;99.90;;;;;;5004555;28;20213;-33
2023/04/14 00:07:46;;;;;;;7.93;3.20;;;9.20;99.90;;;;;;5003106;28;20225;-34
2023/04/14 00:10:15;;;;;;;9.00;3.10;;;9.10;99.90;;;;;;5003264;28;20618;-34
2023/04/14 00:12:46;;;;;;;6.40;3.13;;;9.10;99.90;;;;;;5008594;28;20580;-33
2023/04/14 00:15:16;;;;;;;8.33;3.03;;;9.10;99.90;;;;;;5015067;28;20206;-34
2023/04/14 00:17:43;;;;;;;7.47;2.80;;;9.10;99.90;;;;;;5015555;28;20768;-33
2023/04/14 00:20:13;;;;;;;6.90;2.77;;;9.00;99.90;;;;;;5009366;28;20229;-33
2023/04/14 00:22:40;;;;;;;6.93;3.20;;;9.00;99.90;;;;;;5004367;28;20202;-33
2023/04/14 00:25:12;;;;;;;6.53;2.40;;;9.00;99.90;;;;;;5003063;28;20257;-33
2023/04/14 00:27:45;;;;;;;7.67;2.63;;;8.90;99.90;;;;;;5012147;28;20223;-33
2023/04/14 00:30:12;;;;;;;10.37;3.20;;;8.90;99.90;;;;;;5014723;28;20286;-33
2023/04/14 00:32:42;;;;;;;6.40;2.97;;;8.90;99.90;;;;;;5005683;28;20926;-33
2023/04/14 00:35:09;;;;;;;7.43;3.00;;;8.80;99.90;;;;;;5023502;28;20576;-33
2023/04/14 00:37:41;;;;;;;7.47;2.90;;;8.80;99.90;;;;;;5024030;28;20201;-33
2023/04/14 00:40:13;;;;;;;9.10;2.83;;;8.80;99.90;;;;;;5015949;28;20219;-33
2023/04/14 00:42:44;;;;;;;7.20;2.90;;;8.70;99.90;;;;;;5017746;28;20642;-33
2023/04/14 00:45:12;;;;;;;5.73;3.00;;;8.70;99.90;;;;;;5004455;28;20228;-33
2023/04/14 00:47:46;;;;;;;7.03;3.57;;;8.70;99.90;;;;;;5010686;28;20200;-33
2023/04/14 00:50:17;;;;;;;8.60;3.00;;;8.70;99.90;;;;;;5020981;28;20267;-33
2023/04/14 00:52:51;;;;;;;7.97;3.40;;;8.70;99.90;;;;;;5019626;28;20208;-33
2023/04/14 00:55:24;;;;;;;7.27;3.20;;;8.70;99.90;;;;;;5005541;28;20623;-33
2023/04/14 00:57:53;;;;;;;7.03;3.10;;;8.70;99.90;;;;;;5003805;28;20316;-33
2023/04/14 01:00:23;;;;;;;7.50;3.20;;;8.60;99.90;;;;;;5019527;28;20209;-33
2023/04/14 01:02:50;;;;;;;14.30;3.80;;;8.70;99.90;;;;;;5007988;28;20304;-34
2023/04/14 01:05:20;;;;;;;8.20;3.77;;;8.70;99.90;;;;;;5015316;28;20211;-34
2023/04/14 01:07:53;;;;;;;5.67;3.43;;;8.70;99.90;;;;;;5010100;28;20241;-33
2023/04/14 01:10:29;;;;;;;8.43;3.77;;;8.70;99.90;;;;;;5020939;28;20208;-34
2023/04/14 01:13:06;;;;;;;9.17;3.80;;;8.70;99.90;;;;;;5014700;28;20221;-33
2023/04/14 01:15:56;;;;;;;9.60;4.00;;;8.70;99.90;;;;;;5009732;28;20319;-33
2023/04/14 01:18:26;;;;;;;9.53;4.07;;;8.70;99.90;;;;;;5020219;28;20343;-33
2023/04/14 01:21:09;;;;;;;13.03;4.27;;;8.70;99.90;;;;;;5013742;28;20260;-34
2023/04/14 01:23:47;;;;;;;11.40;4.13;;;8.70;99.90;;;;;;5008824;28;20209;-36
2023/04/14 01:26:28;;;;;;;9.23;3.80;;;8.70;99.90;;;;;;5005641;28;20583;-36
2023/04/14 01:29:01;;;;;;;8.67;4.33;;;8.70;99.90;;;;;;5015340;28;20197;-36
2023/04/14 01:32:14;;;;;;;11.57;3.97;;;8.70;99.90;;;;;;5004830;28;20221;-36
2023/04/14 01:34:49;;;;;;;8.20;3.47;;;8.70;99.90;;;;;;5013890;28;20697;-36
2023/04/14 01:37:29;;;;;;;6.83;3.23;;;8.60;99.90;;;;;;5023898;28;20295;-36
2023/04/14 01:40:06;;;;;;;11.67;3.40;;;8.60;99.90;;;;;;5014051;28;20319;-35
2023/04/14 01:42:38;;;;;;;12.27;3.97;;;8.50;99.90;;;;;;5006058;28;20819;-35
2023/04/14 01:45:19;;;;;;;8.60;3.53;;;8.50;99.90;;;;;;5016208;28;20207;-35
2023/04/14 01:47:53;;;;;;;9.27;3.67;;;8.50;99.90;;;;;;4995479;28;20681;-35
2023/04/14 01:50:24;;;;;;;8.10;3.27;;;8.40;99.90;;;;;;5012269;28;20694;-36
2023/04/14 01:52:58;;;;;;;8.83;3.47;;;8.40;99.90;;;;;;5026587;28;20229;-35
2023/04/14 01:55:30;;;;;;;7.07;3.00;;;8.30;99.90;;;;;;5016937;28;20247;-35
2023/04/14 01:57:58;;;;;;;8.40;3.57;;;8.30;99.90;;;;;;5018576;28;20229;-35
2023/04/14 02:00:26;;;;;;;9.97;3.70;;;8.20;99.90;;;;;;5020065;28;20293;-35
2023/04/14 02:02:56;;;;;;;8.83;3.70;;;8.20;99.90;;;;;;5020500;28;20276;-36
2023/04/14 02:05:29;;;;;;;7.87;3.20;;;8.20;99.90;;;;;;5006947;28;20244;-36
2023/04/14 02:08:02;;;;;;;7.80;3.20;;;8.20;99.90;;;;;;5007898;28;20741;-34
2023/04/14 02:10:32;;;;;;;9.70;3.30;;;8.10;99.90;;;;;;5006465;28;20291;-34
2023/04/14 02:13:05;;;;;;;5.37;2.50;;;8.10;99.90;;;;;;5006079;28;20222;-34
2023/04/14 02:15:34;;;;;;;8.40;3.40;;;8.10;99.90;;;;;;5006815;28;20999;-34
2023/04/14 02:18:08;;;;;;;6.00;2.80;;;8.10;99.90;;;;;;5019303;28;20202;-34
2023/04/14 02:20:42;;;;;;;9.40;3.13;;;8.00;99.90;;;;;;5007185;28;20312;-34
2023/04/14 02:23:16;;;;;;;8.20;3.30;;;7.90;99.90;;;;;;5005753;28;20501;-34
2023/04/14 02:26:12;;;;;;;6.73;3.10;;;7.90;99.90;;;;;;5003782;28;20208;-34
2023/04/14 02:29:08;;;;;;;10.40;3.43;;;7.80;99.90;;;;;;5010360;28;20276;-34
2023/04/14 02:31:46;;;;;;;8.83;3.50;;;7.80;99.90;;;;;;5005490;28;20291;-34
2023/04/14 02:34:14;;;;;;;11.53;3.50;;;7.80;99.90;;;;;;5015800;28;20301;-34
2023/04/14 02:36:46;;;;;;;8.13;3.13;;;7.80;99.90;;;;;;5005870;28;20263;-34
2023/04/14 02:39:21;;;;;;;6.17;3.13;;;7.80;99.90;;;;;;5013464;28;20229;-34
2023/04/14 02:41:59;;;;;;;7.67;3.00;;;7.80;99.90;;;;;;5021884;28;20224;-34
2023/04/14 02:44:33;;;;;;;5.93;3.33;;;7.80;99.90;;;;;;5018399;28;20660;-34
2023/04/14 02:47:08;;;;;;;7.47;3.23;;;7.80;99.90;;;;;;5017419;28;20231;-34
2023/04/14 02:49:40;;;;;;;9.00;3.40;;;7.80;99.90;;;;;;5013006;28;20213;-34
2023/04/14 02:52:15;;;;;;;5.90;3.20;;;7.80;99.90;;;;;;5010252;28;20660;-34
2023/04/14 02:54:46;;;;;;;9.00;3.50;;;7.80;99.90;;;;;;5020558;28;20219;-34
2023/04/14 02:57:13;;;;;;;7.93;3.33;;;7.80;99.90;;;;;;5025510;28;20618;-34
2023/04/14 02:59:44;;;;;;;6.60;3.13;;;7.80;99.90;;;;;;5013008;28;20216;-34
2023/04/14 03:02:12;;;;;;;7.53;3.73;;;7.70;99.90;;;;;;5005586;28;20241;-34
2023/04/14 03:04:40;;;;;;;6.50;2.97;;;7.70;99.90;;;;;;5006713;28;20212;-34
2023/04/14 03:07:12;;;;;;;6.33;3.10;;;7.70;99.90;;;;;;5005475;28;20749;-34
2023/04/14 03:09:41;;;;;;;7.13;3.30;;;7.70;99.90;;;;;;5002929;28;20198;-34
2023/04/14 03:12:13;;;;;;;7.53;3.60;;;7.70;99.90;;;;;;5011182;28;20490;-34
2023/04/14 03:14:43;;;;;;;6.70;3.30;;;7.60;99.90;;;;;;5004306;28;20210;-34
2023/04/14 03:17:10;;;;;;;8.47;3.73;;;7.60;99.90;;;;;;5005355;28;20642;-34
2023/04/14 03:19:40;;;;;;;8.33;3.83;;;7.50;99.90;;;;;;5004384;28;20316;-34
2023/04/14 03:22:13;;;;;;;5.70;3.30;;;7.50;99.90;;;;;;5006675;28;20206;-34
2023/04/14 03:24:42;;;;;;;9.20;3.30;;;7.40;99.90;;;;;;5028333;28;20212;-34
2023/04/14 03:27:13;;;;;;;4.20;2.50;;;7.40;99.90;;;;;;5021718;28;20212;-34
2023/04/14 03:29:46;;;;;;;7.63;3.20;;;7.30;99.90;;;;;;5022854;28;20209;-34
2023/04/14 03:32:16;;;;;;;5.97;3.30;;;7.30;99.90;;;;;;5006900;28;20206;-34
2023/04/14 03:34:48;;;;;;;9.10;3.47;;;7.20;99.90;;;;;;5004508;28;20221;-34
2023/04/14 03:37:17;;;;;;;6.30;3.27;;;7.20;99.90;;;;;;5009045;28;20684;-35
2023/04/14 03:39:51;;;;;;;6.87;3.23;;;7.20;99.90;;;;;;5004555;28;20774;-34
2023/04/14 03:42:20;;;;;;;6.73;3.40;;;7.10;99.90;;;;;;5004485;28;20217;-34
2023/04/14 03:44:53;;;;;;;6.93;3.10;;;7.10;99.90;;;;;;5003196;28;20283;-34
2023/04/14 03:47:22;;;;;;;6.67;2.90;;;7.00;99.90;;;;;;5019813;28;20404;-34
2023/04/14 03:49:56;;;;;;;6.97;3.07;;;7.00;99.90;;;;;;5004297;28;20677;-34
2023/04/14 03:52:32;;;;;;;7.17;3.10;;;7.00;99.90;;;;;;5003283;28;20684;-34
2023/04/14 03:55:05;;;;;;;4.13;2.63;;;6.90;99.90;;;;;;5009440;28;20327;-34
2023/04/14 03:57:35;;;;;;;7.90;3.00;;;6.90;99.90;;;;;;5024209;28;20700;-34
2023/04/14 04:00:07;;;;;;;9.10;2.97;;;6.90;99.90;;;;;;5018463;28;20655;-34
2023/04/14 04:02:35;;;;;;;7.93;3.13;;;6.90;99.90;;;;;;5003483;28;20202;-34
2023/04/14 04:05:07;;;;;;;6.73;3.00;;;6.90;99.90;;;;;;5007413;28;20691;-34
2023/04/14 04:07:35;;;;;;;6.40;3.43;;;6.80;99.90;;;;;;5021393;28;20240;-34
2023/04/14 04:10:06;;;;;;;7.87;3.23;;;6.80;99.90;;;;;;5002300;28;20202;-34
2023/04/14 04:12:38;;;;;;;7.30;3.47;;;6.80;99.90;;;;;;5015916;28;20748;-34
2023/04/14 04:15:08;;;;;;;6.30;3.43;;;6.80;99.90;;;;;;5004524;28;20194;-34
2023/04/14 04:17:37;;;;;;;7.97;3.10;;;6.80;99.90;;;;;;5000222;28;20221;-34
2023/04/14 04:20:10;;;;;;;9.70;3.50;;;6.70;99.90;;;;;;5022863;28;20802;-34
2023/04/14 04:22:41;;;;;;;7.23;3.13;;;6.70;99.90;;;;;;5023634;28;20271;-34
2023/04/14 04:25:10;;;;;;;9.50;3.53;;;6.70;99.90;;;;;;5005068;28;20200;-34
2023/04/14 04:27:39;;;;;;;7.93;3.60;;;6.70;99.90;;;;;;5006971;28;20624;-34
2023/04/14 04:30:11;;;;;;;6.60;2.80;;;6.70;99.90;;;;;;5005181;28;20543;-34
2023/04/14 04:32:38;;;;;;;7.77;3.57;;;6.70;99.90;;;;;;5023879;28;20209;-35
2023/04/14 04:35:06;;;;;;;8.83;3.63;;;6.70;99.90;;;;;;5021668;28;20714;-35
2023/04/14 04:37:37;;;;;;;8.13;3.40;;;6.60;99.90;;;;;;5009867;28;20304;-35
2023/04/14 04:40:07;;;;;;;7.43;3.43;;;6.60;99.90;;;;;;5003210;28;20240;-35
2023/04/14 04:42:40;;;;;;;9.20;3.27;;;6.60;99.90;;;;;;5004653;28;20201;-35
2023/04/14 04:45:12;;;;;;;6.13;3.07;;;6.60;99.90;;;;;;5004516;28;20623;-35
2023/04/14 04:47:39;;;;;;;6.33;3.07;;;6.60;99.90;;;;;;5004037;28;20363;-35
2023/04/14 04:50:12;;;;;;;4.63;2.87;;;6.60;99.90;;;;;;5000226;28;20853;-35
2023/04/14 04:52:42;;;;;;;6.37;2.97;;;6.60;99.90;;;;;;5012438;28;20438;-35
2023/04/14 04:55:09;;;;;;;7.00;2.80;;;6.60;99.90;;;;;;5016795;28;20252;-34
2023/04/14 04:57:38;;;;;;;4.40;2.20;;;6.60;99.90;;;;;;5009286;28;20224;-35
2023/04/14 05:00:07;;;;;;;6.07;2.47;;;6.70;99.90;;;;;;5016926;28;20217;-34
2023/04/14 05:02:41;;;;;;;6.50;2.40;;;6.70;99.90;;;;;;5022605;28;20263;-35
2023/04/14 05:05:11;;;;;;;4.17;2.20;;;6.70;99.90;;;;;;5017943;28;20248;-35
2023/04/14 05:07:38;;;;;;;5.33;2.57;;;6.80;99.90;;;;;;5016951;28;20613;-35
2023/04/14 05:10:08;;;;;;;5.97;2.90;;;6.80;99.90;;;;;;5005792;28;20228;-35
2023/04/14 05:12:40;;;;;;;7.90;2.70;;;6.90;99.90;;;;;;5011450;28;20216;-35
2023/04/14 05:15:08;;;;;;;6.27;2.77;;;6.90;99.90;;;;;;5014668;28;20212;-35
2023/04/14 05:17:38;;;;;;;7.63;2.80;;;6.90;99.90;;;;;;5007785;28;20321;-35
2023/04/14 05:20:08;;;;;;;7.17;3.10;;;6.90;99.90;;;;;;5015135;28;20675;-34
2023/04/14 05:22:40;;;;;;;7.97;3.10;;;7.00;99.90;;;;;;5020996;28;20302;-35
2023/04/14 05:25:14;;;;;;;5.27;2.60;;;7.10;99.90;;;;;;5024441;28;20201;-35
2023/04/14 05:27:46;;;;;;;7.87;3.10;;;7.10;99.90;;;;;;5018657;28;20358;-35
2023/04/14 05:30:15;;;;;;;6.17;2.77;;;7.10;99.90;;;;;;5010240;28;20253;-35
2023/04/14 05:32:45;;;;;;;6.57;2.93;;;7.20;99.90;;;;;;5005113;28;20209;-35
2023/04/14 05:35:16;;;;;;;6.93;2.90;;;7.20;99.90;;;;;;5009833;28;20227;-35
2023/04/14 05:37:46;;;;;;;4.67;2.93;;;7.20;99.90;;;;;;5025838;28;20212;-35
2023/04/14 05:40:13;;;;;;;6.93;2.50;;;7.30;99.90;;;;;;5014936;28;20232;-35
2023/04/14 05:42:40;;;;;;;4.23;2.60;;;7.30;99.90;;;;;;5019346;28;20240;-35
2023/04/14 05:45:08;;;;;;;7.03;3.10;;;7.30;99.90;;;;;;5014987;28;20301;-35
2023/04/14 05:47:38;;;;;;;9.47;2.90;;;7.30;99.90;;;;;;5020763;28;20714;-35
2023/04/14 05:50:08;;;;;;;6.70;2.50;;;7.30;99.90;;;;;;5007781;28;20197;-35
2023/04/14 05:52:37;;;;;;;6.73;2.77;;;7.40;99.90;;;;;;5011102;28;20280;-35
2023/04/14 05:55:07;;;;;;;5.87;2.73;;;7.40;99.90;;;;;;5017998;28;20593;-35
2023/04/14 05:57:34;;;;;;;4.87;2.67;;;7.50;99.90;;;;;;5006613;28;20245;-34
2023/04/14 06:00:11;;;;;;;11.63;3.03;;;7.50;99.90;;;;;;5004485;28;20224;-35
2023/04/14 06:02:39;;;;;;;4.67;2.30;;;7.60;99.90;;;;;;5015735;28;20298;-36
2023/04/14 06:05:07;;;;;;;6.17;2.30;;;7.60;99.90;;;;;;5004989;28;20264;-35
2023/04/14 06:07:42;;;;;;;5.87;2.37;;;7.70;99.90;;;;;;5024226;28;20276;-34
2023/04/14 06:10:12;;;;;;;7.00;2.73;;;7.70;99.90;;;;;;5008703;28;20208;-34
2023/04/14 06:12:39;;;;;;;4.27;2.40;;;7.80;99.90;;;;;;5021601;28;20229;-37
2023/04/14 06:15:07;;;;;;;4.97;2.53;;;7.90;99.90;;;;;;5006553;28;20289;-36
2023/04/14 06:17:36;;;;;;;7.23;2.57;;;7.90;99.90;;;;;;5007326;28;20209;-36
2023/04/14 06:20:07;;;;;;;5.13;2.43;;;8.00;99.90;;;;;;5016394;28;20620;-35
2023/04/14 06:22:39;;;;;;;4.43;2.43;;;8.10;99.90;;;;;;5025015;28;20201;-36
2023/04/14 06:25:14;;;;;;;6.23;2.30;;;8.20;99.90;;;;;;5010955;28;20318;-36
2023/04/14 06:27:48;;;;;;;10.83;3.07;;;8.20;99.90;;;;;;5016744;28;20208;-35
2023/04/14 06:30:15;;;;;;;8.63;2.77;;;8.30;99.90;;;;;;5024128;28;20309;-36
2023/04/14 06:32:43;;;;;;;5.13;2.53;;;8.40;99.90;;;;;;5008549;28;20707;-35
2023/04/14 06:35:14;;;;;;;4.93;2.30;;;8.50;99.90;;;;;;5015488;28;20603;-35
2023/04/14 06:37:58;;;;;;;11.50;2.53;;;8.50;99.90;;;;;;5009084;28;20228;-33
2023/04/14 06:40:27;;;;;;;8.50;2.60;;;8.70;99.90;;;;;;5009630;28;20467;-33
2023/04/14 06:42:57;;;;;;;7.27;2.70;;;8.70;99.90;;;;;;5014005;28;20197;-33
2023/04/14 06:45:26;;;;;;;5.23;2.43;;;8.70;99.90;;;;;;5014986;28;20547;-33
2023/04/14 06:47:58;;;;;;;5.67;2.50;;;8.80;99.90;;;;;;5008882;28;20219;-33
2023/04/14 06:50:32;;;;;;;6.83;2.63;;;8.80;99.90;;;;;;5015621;28;20260;-33
2023/04/14 06:53:05;;;;;;;4.80;2.27;;;8.90;99.90;;;;;;5019784;28;20643;-33
2023/04/14 06:55:42;;;;;;;4.50;2.33;;;8.90;99.90;;;;;;5017870;28;20240;-33
2023/04/14 06:58:09;;;;;;;8.90;2.87;;;9.00;99.90;;;;;;5020236;28;20209;-33
2023/04/14 07:00:38;;;;;;;4.40;1.90;;;9.10;99.90;;;;;;5009089;28;20217;-34
2023/04/14 07:03:08;;;;;;;8.87;2.40;;;9.10;99.90;;;;;;5018925;28;20220;-33
2023/04/14 07:05:40;;;;;;;8.00;2.53;;;9.20;99.90;;;;;;5013673;28;20351;-33
2023/04/14 07:08:07;;;;;;;2.53;1.87;;;9.20;99.90;;;;;;5012984;28;20775;-33
2023/04/14 07:10:34;;;;;;;6.30;2.30;;;9.30;99.90;;;;;;5017807;28;20205;-33
2023/04/14 07:13:04;;;;;;;5.43;2.00;;;9.30;99.90;;;;;;5038014;28;20767;-33
2023/04/14 07:15:33;;;;;;;5.37;2.17;;;9.40;99.90;;;;;;5020350;28;20703;-34
2023/04/14 07:18:03;;;;;;;6.17;2.00;;;9.40;99.90;;;;;;5004674;28;20228;-34
2023/04/14 07:20:34;;;;;;;6.97;2.30;;;9.50;99.90;;;;;;5004494;28;20219;-33
2023/04/14 07:23:01;;;;;;;4.43;1.90;;;9.50;99.90;;;;;;5009096;28;20284;-33
2023/04/14 07:25:35;;;;;;;5.10;2.00;;;9.60;99.90;;;;;;5017520;28;20685;-33
2023/04/14 07:28:05;;;;;;;4.77;1.90;;;9.60;99.90;;;;;;5009989;28;20214;-33
2023/04/14 07:30:38;;;;;;;3.50;1.53;;;9.70;99.90;;;;;;5006186;28;20217;-34
2023/04/14 07:33:08;;;;;;;4.70;1.20;;;9.80;99.90;;;;;;5004752;28;20272;-33
2023/04/14 07:35:42;;;;;;;6.00;1.50;;;9.80;99.90;;;;;;5028642;28;20279;-34
2023/04/14 07:38:31;;;;;;;4.00;1.77;;;9.90;99.90;;;;;;4999822;28;20585;-34
2023/04/14 07:41:03;;;;;;;5.20;1.83;;;10.00;99.90;;;;;;5002571;28;20237;-34
2023/04/14 07:43:35;;;;;;;8.30;2.20;;;10.00;99.90;;;;;;5021418;28;20945;-33
2023/04/14 07:46:06;;;;;;;6.30;1.93;;;10.10;99.90;;;;;;5011954;28;20201;-33
2023/04/14 07:48:35;;;;;;;5.00;1.67;;;10.10;99.90;;;;;;5005186;28;20255;-34
2023/04/14 07:51:06;;;;;;;3.57;1.37;;;10.20;99.90;;;;;;5004076;28;20743;-33
2023/04/14 07:53:41;;;;;;;3.90;1.60;;;10.20;99.90;;;;;;5004726;28;20197;-34
2023/04/14 07:56:11;;;;;;;3.33;1.80;;;10.30;99.90;;;;;;5009677;28;20420;-34
2023/04/14 07:58:43;;;;;;;2.80;1.33;;;10.40;99.90;;;;;;5013314;28;20232;-33
2023/04/14 08:01:15;;;;;;;4.53;1.63;;;10.40;99.90;;;;;;5007000;28;20226;-34
2023/04/14 08:03:44;;;;;;;4.13;1.53;;;10.50;99.90;;;;;;5018517;28;20194;-34
2023/04/14 08:06:21;;;;;;;3.90;1.77;;;10.50;99.90;;;;;;5010596;28;20217;-33
2023/04/14 08:08:48;;;;;;;4.23;1.60;;;10.60;99.90;;;;;;5020829;28;20274;-33
2023/04/14 08:11:15;;;;;;;8.03;1.80;;;10.60;99.90;;;;;;5021803;28;20670;-33
2023/04/14 08:13:43;;;;;;;7.17;1.87;;;10.70;99.90;;;;;;5022742;28;20209;-33
2023/04/14 08:16:10;;;;;;;6.80;1.90;;;10.70;99.90;;;;;;5016837;28;20584;-33
2023/04/14 08:18:39;;;;;;;4.63;1.97;;;10.70;99.90;;;;;;5013582;28;20512;-33
2023/04/14 08:21:09;;;;;;;3.80;1.60;;;10.80;99.90;;;;;;5002402;28;20237;-33
2023/04/14 08:23:42;;;;;;;6.07;1.87;;;10.90;99.90;;;;;;5001916;28;20206;-33
2023/04/14 08:26:11;;;;;;;5.87;1.73;;;10.90;99.90;;;;;;5003437;28;20308;-33
2023/04/14 08:28:38;;;;;;;4.20;1.97;;;10.90;99.90;;;;;;5014004;28;20315;-33
2023/04/14 08:31:06;;;;;;;6.03;1.90;;;11.00;99.90;;;;;;5015725;28;20676;-33
2023/04/14 08:33:33;;;;;;;7.07;2.00;;;11.00;99.90;;;;;;5013051;28;20221;-33
2023/04/14 08:36:08;;;;;;;10.47;2.20;;;11.10;99.90;;;;;;5009634;28;20259;-33
2023/04/14 08:38:40;;;;;;;6.83;1.63;;;11.20;99.90;;;;;;5016991;28;20223;-33
2023/04/14 08:41:08;;;;;;;2.07;1.13;;;11.20;99.90;;;;;;5004720;28;20309;-33
2023/04/14 08:43:40;;;;;;;3.23;1.20;;;11.30;99.90;;;;;;5004436;28;20683;-33
2023/04/14 08:46:12;;;;;;;2.90;0.90;;;11.40;99.90;;;;;;4992125;28;20205;-33
2023/04/14 08:48:40;;;;;;;1.87;0.77;;;11.40;99.90;;;;;;5015909;28;20213;-33
2023/04/14 08:51:32;;;;;;;1.67;0.80;;;11.50;99.90;;;;;;5011517;28;20216;-33
2023/04/14 08:54:06;;;;;;;2.33;0.87;;;11.50;99.90;;;;;;5001707;28;20960;-34
2023/04/14 08:56:42;;;;;;;4.03;1.10;;;11.60;99.90;;;;;;5008922;28;20298;-33
2023/04/14 08:59:10;;;;;;;3.80;1.20;;;11.60;99.90;;;;;;5016222;28;20312;-33
2023/04/14 09:01:42;;;;;;;3.57;1.10;;;11.70;99.90;;;;;;5007244;28;20213;-33
2023/04/14 09:04:13;;;;;;;1.77;0.90;;;11.70;99.90;;;;;;5003935;28;20209;-33
2023/04/14 09:06:41;;;;;;;4.50;1.07;;;11.80;99.90;;;;;;5017621;28;20292;-33
2023/04/14 09:09:10;;;;;;;2.47;0.90;;;11.80;99.90;;;;;;5015620;28;20667;-33
2023/04/14 09:11:41;;;;;;;3.03;1.00;;;11.90;99.90;;;;;;5002801;28;20237;-33
2023/04/14 09:14:13;;;;;;;4.40;1.27;;;12.00;99.90;;;;;;5018342;28;20275;-35
2023/04/14 09:16:47;;;;;;;4.23;1.10;;;12.00;99.90;;;;;;5014050;28;20219;-33
2023/04/14 09:19:20;;;;;;;6.37;1.20;;;12.10;99.90;;;;;;5019351;28;20218;-32
2023/04/14 09:21:47;;;;;;;1.83;0.93;;;12.10;99.90;;;;;;5007529;28;20237;-33
2023/04/14 09:24:23;;;;;;;4.17;1.37;;;12.20;99.90;;;;;;5003106;28;20268;-34
2023/04/14 09:26:54;;;;;;;5.93;1.13;;;12.30;99.90;;;;;;5010954;28;20236;-34
2023/04/14 09:29:21;;;;;;;4.80;1.40;;;12.40;99.90;;;;;;5009172;28;20210;-34
2023/04/14 09:31:50;;;;;;;4.70;1.63;;;12.40;99.90;;;;;;5009442;28;20324;-34
2023/04/14 09:34:21;;;;;;;3.40;1.30;;;12.50;99.90;;;;;;5014952;28;20331;-34
2023/04/14 09:37:11;;;;;;;3.97;1.47;;;12.50;99.90;;;;;;5013335;28;20194;-32
2023/04/14 09:39:51;;;;;;;5.37;1.47;;;12.60;99.90;;;;;;5005171;28;20213;-32
2023/04/14 09:42:20;;;;;;;3.20;1.37;;;12.60;99.90;;;;;;5011083;28;20233;-35
2023/04/14 09:45:00;;;;;;;5.23;1.53;;;12.60;99.90;;;;;;5020288;28;20202;-35
2023/04/14 09:47:30;;;;;;;21.92;3.85;;;12.70;99.90;;;;;;5006208;28;20685;-34
2023/04/14 09:50:03;;;;;;;15.43;3.22;;;12.70;99.90;;;;;;5032881;28;20491;-34
2023/04/14 09:52:47;;;;;;;5.80;1.60;;;12.80;99.90;;;;;;5011033;28;20240;-34
2023/04/14 09:55:15;;;;;;;5.73;1.50;;;12.80;99.90;;;;;;5021331;28;20275;-33
2023/04/14 09:57:46;;;;;;;6.37;1.60;;;12.90;99.90;;;;;;5010270;28;20656;-33
2023/04/14 10:00:20;;;;;;;5.13;1.50;;;12.90;99.90;;;;;;5008052;28;20683;-33
2023/04/14 10:03:01;;;;;;;4.77;1.47;;;13.00;99.90;;;;;;5008889;28;20846;-35
2023/04/14 10:05:30;;;;;;;3.50;1.70;;;13.10;99.90;;;;;;5007161;28;20197;-33
2023/04/14 10:08:06;;;;;;;6.43;1.93;;;13.10;99.90;;;;;;5025263;28;20308;-33
2023/04/14 10:10:36;;;;;;;3.63;1.47;;;13.20;99.90;;;;;;5013583;28;20697;-34
2023/04/14 10:13:03;;;;;;;4.70;1.40;;;13.20;99.90;;;;;;5018662;28;20208;-33
2023/04/14 10:15:31;;;;;;;3.63;1.17;;;13.30;99.90;;;;;;5019314;28;20232;-33
2023/04/14 10:17:58;;;;;;;3.60;1.30;;;13.30;99.90;;;;;;5023782;28;20224;-33
2023/04/14 10:20:28;;;;;;;4.63;1.40;;;13.40;99.90;;;;;;5025626;28;20201;-33
2023/04/14 10:22:56;;;;;;;3.57;1.30;;;13.40;99.90;;;;;;5026364;28;20259;-33
2023/04/14 10:25:26;;;;;;;4.53;1.30;;;13.50;99.90;;;;;;5016379;28;20252;-33
2023/04/14 10:27:57;;;;;;;4.22;1.30;;;13.60;99.90;;;;;;5030576;28;20276;-33
2023/04/14 10:30:26;;;;;;;2.78;1.08;;;13.60;99.90;;;;;;5006860;28;20544;-33
2023/04/14 10:32:54;;;;;;;3.33;1.10;;;13.70;99.90;;;;;;5023314;28;20814;-33
2023/04/14 10:35:26;;;;;;;2.43;1.27;;;13.70;99.90;;;;;;5022959;28;20301;-33
2023/04/14 10:37:58;;;;;;;3.97;1.50;;;13.80;99.90;;;;;;5010931;28;20455;-33
2023/04/14 10:40:48;;;;;;;3.33;1.23;;;13.90;99.90;;;;;;5002955;28;20301;-33
2023/04/14 10:43:18;;;;;;;4.60;1.10;;;14.00;99.90;;;;;;5017814;28;20212;-33
2023/04/14 10:45:58;;;;;;;2.40;1.00;;;14.00;99.90;;;;;;5018883;28;20208;-33
2023/04/14 10:48:27;;;;;;;2.53;1.00;;;14.10;99.90;;;;;;5011916;28;20209;-33
2023/04/14 10:51:07;;;;;;;2.57;1.07;;;14.20;99.90;;;;;;5004094;28;20225;-34
2023/04/14 10:53:51;;;;;;;3.23;1.30;;;14.20;99.90;;;;;;5005103;28;20202;-33
2023/04/14 10:56:23;;;;;;;3.40;1.30;;;14.30;99.90;;;;;;5003779;28;20252;-34
2023/04/14 10:58:57;;;;;;;7.67;1.30;;;14.40;99.90;;;;;;5011865;28;20443;-33
2023/04/14 11:01:30;;;;;;;3.10;1.00;;;14.50;99.90;;;;;;5019475;28;20767;-34
2023/04/14 11:04:19;;;;;;;2.37;1.00;;;14.50;99.90;;;;;;5012023;28;20771;-33
2023/04/14 11:06:51;;;;;;;7.78;1.50;;;14.50;99.90;;;;;;5010081;28;20398;-33
2023/04/14 11:09:31;;;;;;;4.30;1.27;;;14.60;99.90;;;;;;5011625;28;20318;-33
2023/04/14 11:12:24;;;;;;;3.17;1.20;;;14.60;99.90;;;;;;5011362;28;20621;-33
2023/04/14 11:15:00;;;;;;;2.80;0.93;;;14.70;99.90;;;;;;5016567;28;20338;-33
2023/04/14 11:17:32;;;;;;;3.13;1.00;;;14.70;99.90;;;;;;5016823;28;20207;-33
2023/04/14 11:20:16;;;;;;;2.90;1.00;;;14.70;99.90;;;;;;5013454;28;20617;-33
2023/04/14 11:22:51;;;;;;;3.60;1.00;;;14.80;99.90;;;;;;5017903;28;20251;-33
2023/04/14 11:25:25;;;;;;;3.47;0.90;;;14.80;99.90;;;;;;5016692;28;20215;-33
2023/04/14 11:27:55;;;;;;;2.83;0.98;;;14.90;99.90;;;;;;5008927;28;20197;-33
2023/04/14 11:30:22;;;;;;;5.45;1.25;;;15.00;99.90;;;;;;5013994;28;20227;-33
2023/04/14 11:32:56;;;;;;;2.93;1.03;;;15.00;99.90;;;;;;5005122;28;20222;-33
2023/04/14 11:35:30;;;;;;;3.67;1.40;;;15.10;99.90;;;;;;5006902;28;20677;-33
2023/04/14 11:37:59;;;;;;;3.65;1.15;;;15.10;99.90;;;;;;5016613;28;20580;-33
2023/04/14 11:40:34;;;;;;;4.57;1.20;;;15.20;99.90;;;;;;5015701;28;20213;-33
2023/04/14 11:43:01;;;;;;;3.30;0.88;;;15.20;99.90;;;;;;5004024;28;20209;-33
2023/04/14 11:45:32;;;;;;;2.47;0.93;;;15.30;99.90;;;;;;5003089;28;20221;-33
2023/04/14 11:48:02;;;;;;;4.37;1.10;;;15.40;99.90;;;;;;5006410;28;20271;-32
2023/04/14 11:50:41;;;;;;;3.50;0.95;;;15.40;99.90;;;;;;5008707;28;20295;-33
2023/04/14 11:53:12;;;;;;;3.00;0.80;;;15.40;99.90;;;;;;5019992;28;20328;-33
2023/04/14 11:55:48;;;;;;;3.75;0.80;;;15.50;99.90;;;;;;5002853;28;20241;-35
2023/04/14 11:58:21;;;;;;;4.60;1.00;;;15.50;99.90;;;;;;5008070;28;20213;-33
2023/04/14 12:00:51;;;;;;;3.17;1.15;;;15.50;99.90;;;;;;5023795;28;20213;-33
2023/04/14 12:03:27;;;;;;;2.22;1.13;;;15.60;99.90;;;;;;5019203;28;20627;-33
2023/04/14 12:06:00;;;;;;;2.20;0.80;;;15.60;99.90;;;;;;5001152;28;20672;-33
2023/04/14 12:08:34;;;;;;;3.05;0.70;;;15.70;99.90;;;;;;5008516;28;20204;-35
2023/04/14 12:11:15;;;;;;;3.90;0.70;;;15.70;99.90;;;;;;5022833;28;20216;-33
2023/04/14 12:13:46;;;;;;;4.13;0.73;;;15.80;99.90;;;;;;5016611;28;20329;-33
2023/04/14 12:16:15;;;;;;;1.80;0.60;;;15.80;99.90;;;;;;5004306;28;20625;-33
2023/04/14 12:18:43;;;;;;;2.45;0.75;;;15.90;99.90;;;;;;5004839;28;20267;-33
2023/04/14 12:21:17;;;;;;;2.30;0.93;;;15.90;99.90;;;;;;5016324;28;20718;-33
2023/04/14 12:23:48;;;;;;;1.95;0.80;;;16.00;99.90;;;;;;5001454;28;20267;-33
2023/04/14 12:26:16;;;;;;;3.17;0.90;;;16.00;99.90;;;;;;5021071;28;20644;-33
2023/04/14 12:28:46;;;;;;;2.20;0.60;;;16.00;99.90;;;;;;5018549;28;20205;-33
2023/04/14 12:31:30;;;;;;;2.25;0.90;;;16.00;99.90;;;;;;5015506;28;20583;-33
2023/04/14 12:34:05;;;;;;;2.25;0.93;;;16.10;99.90;;;;;;5004638;28;20663;-33
2023/04/14 12:36:32;;;;;;;3.00;0.80;;;16.10;99.90;;;;;;5026566;28;20728;-33
2023/04/14 12:39:19;;;;;;;2.83;1.02;;;16.10;99.90;;;;;;5007250;28;20205;-33
2023/04/14 12:41:46;;;;;;;2.55;0.68;;;16.10;99.90;;;;;;5011785;28;20231;-33
2023/04/14 12:44:20;;;;;;;2.42;0.70;;;16.10;99.90;;;;;;5007558;28;20217;-33
2023/04/14 12:46:55;;;;;;;2.15;0.85;;;16.10;99.90;;;;;;5003277;28;20295;-33
2023/04/14 12:49:36;;;;;;;3.88;1.00;;;16.20;99.90;;;;;;5005436;28;20205;-33
2023/04/14 12:52:04;;;;;;;2.75;0.93;;;16.20;99.90;;;;;;5002960;28;20240;-33
2023/04/14 12:54:53;;;;;;;2.42;0.80;;;16.20;99.90;;;;;;5011208;28;20220;-33
2023/04/14 12:57:21;;;;;;;2.55;0.70;;;16.30;99.90;;;;;;5023001;28;20681;-33
2023/04/14 12:59:49;;;;;;;2.83;0.80;;;16.30;99.90;;;;;;5016460;28;20201;-33
2023/04/14 13:02:21;;;;;;;2.72;0.77;;;16.40;99.90;;;;;;5022894;28;20220;-33
2023/04/14 13:04:51;;;;;;;4.20;1.00;;;16.40;99.90;;;;;;5016949;28;20267;-33
2023/04/14 13:07:18;;;;;;;2.58;0.80;;;16.50;99.90;;;;;;5017386;28;20500;-33
2023/04/14 13:09:48;;;;;;;3.58;0.95;;;16.50;99.90;;;;;;5014037;28;21068;-33
2023/04/14 13:12:18;;;;;;;2.58;0.90;;;16.60;99.90;;;;;;5018422;28;20549;-33
2023/04/14 13:14:45;;;;;;;3.65;1.10;;;16.70;99.90;;;;;;5019125;28;20212;-33
2023/04/14 13:17:14;;;;;;;3.13;0.93;;;16.70;99.90;;;;;;5016541;28;20218;-33